createdAt,value
2023-01-15T16:10:54.029Z,6.70
2023-01-15T16:13:28.073Z,6.80
2023-01-15T16:15:59.737Z,6.70
2023-01-15T16:18:36.926Z,6.60
2023-01-15T16:21:05.969Z,6.50
2023-01-15T16:23:36.543Z,6.40
2023-01-15T16:26:13.811Z,6.50
2023-01-15T16:28:51.016Z,6.40
2023-01-15T16:31:29.392Z,6.40
2023-01-15T16:34:00.471Z,6.30
2023-01-15T16:36:30.885Z,6.20
2023-01-15T16:39:02.496Z,6.30
2023-01-15T16:41:40.092Z,6.20
2023-01-15T16:44:31.083Z,6.10
2023-01-15T16:47:02.854Z,6.20
2023-01-15T16:49:33.615Z,6.30
2023-01-15T16:52:23.512Z,6.20
2023-01-15T16:54:56.746Z,6.30
2023-01-15T16:58:15.597Z,6.30
2023-01-15T17:00:46.384Z,6.30
2023-01-15T17:03:16.713Z,6.20
2023-01-15T17:05:49.873Z,6.20
2023-01-15T17:08:21.586Z,6.30
2023-01-15T17:10:59.832Z,6.40
2023-01-15T17:13:35.053Z,6.30
2023-01-15T17:16:18.106Z,6.20
2023-01-15T17:18:49.933Z,6.20
2023-01-15T17:21:23.671Z,6.20
2023-01-15T17:23:52.276Z,6.10
2023-01-15T17:26:23.658Z,6.00
2023-01-15T17:28:59.545Z,6.00
2023-01-15T17:31:30.422Z,5.90
2023-01-15T17:33:59.749Z,5.80
2023-01-15T17:36:32.874Z,5.80
2023-01-15T17:39:03.174Z,5.80
2023-01-15T17:41:32.011Z,5.80
2023-01-15T17:44:01.893Z,5.70
2023-01-15T17:46:30.751Z,5.60
2023-01-15T17:48:59.349Z,5.60
2023-01-15T17:51:30.587Z,5.60
2023-01-15T17:53:59.339Z,5.60
2023-01-15T17:56:46.278Z,5.70
2023-01-15T17:59:30.121Z,5.70
2023-01-15T18:02:16.145Z,5.70
2023-01-15T18:05:07.735Z,5.70
2023-01-15T18:07:42.306Z,5.80
2023-01-15T18:10:18.806Z,5.90
2023-01-15T18:12:49.889Z,5.90
